Time;durP1;ratioP1;P1;durP2;ratioP2;P2;SDS_P1;SDS_P2;PMS_P1;PMS_P2;Temp;Humidity;BMP_temperature;BMP_pressure;BME280_temperature;BME280_humidity;BME280_pressure;Samples;Min_cycle;Max_cycle;Signal;HPM_P1;HPM_P2
2022/06/28 00:01:06;;;;;;;2.35;1.52;;;;;;;;;;5038531;28;20029;-58
2022/06/28 00:04:16;;;;;;;4.13;2.15;;;;;;;;;;5047288;28;20026;-58
2022/06/28 00:07:12;;;;;;;2.67;1.88;;;;;;;;;;5029961;28;20025;-58
2022/06/28 00:09:50;;;;;;;2.33;1.60;;;;;;;;;;4986177;28;20035;-58
2022/06/28 00:13:03;;;;;;;4.03;2.20;;;;;;;;;;4979089;28;20130;-58
2022/06/28 00:18:28;;;;;;;1.85;1.17;;;;;;;;;;5047002;28;20044;-58
2022/06/28 00:21:20;;;;;;;2.25;1.38;;;;;;;;;;5045225;28;20044;-58
2022/06/28 00:24:18;;;;;;;1.63;1.15;;;;;;;;;;5046702;28;20036;-58
2022/06/28 00:27:06;;;;;;;1.98;1.40;;;;;;;;;;5034397;28;20112;-58
2022/06/28 00:30:12;;;;;;;2.70;1.58;;;;;;;;;;5046839;28;20053;-58
2022/06/28 00:32:43;;;;;;;3.33;1.60;;;;;;;;;;5046411;28;20160;-58
2022/06/28 00:35:25;;;;;;;2.13;1.42;;;;;;;;;;5046511;28;20088;-58
2022/06/28 00:37:57;;;;;;;2.42;1.20;;;;;;;;;;5026586;28;20045;-58
2022/06/28 00:40:52;;;;;;;2.30;1.40;;;;;;;;;;5047429;28;20030;-58
2022/06/28 00:43:47;;;;;;;;;;;;;;;;;;;;;
2022/06/28 00:46:27;;;;;;;2.10;1.05;;;;;;;;;;5046686;28;20053;-58
2022/06/28 00:49:05;;;;;;;1.27;0.75;;;;;;;;;;5046960;28;20052;-57
2022/06/28 00:51:58;;;;;;;2.70;1.58;;;;;;;;;;5047222;28;20060;-57
2022/06/28 00:54:45;;;;;;;1.95;1.13;;;;;;;;;;5046458;28;20566;-58
2022/06/28 00:57:15;;;;;;;2.13;1.00;;;;;;;;;;5038105;28;20037;-57
2022/06/28 01:00:07;;;;;;;2.17;1.10;;;;;;;;;;5046882;28;20025;-58
2022/06/28 01:06:09;;;;;;;1.58;1.08;;;;;;;;;;5046735;28;20060;-58
2022/06/28 01:08:58;;;;;;;1.17;0.85;;;;;;;;;;5025182;28;20062;-58
2022/06/28 01:14:31;;;;;;;2.22;1.20;;;;;;;;;;4986305;28;20039;-58
2022/06/28 01:17:28;;;;;;;1.92;1.05;;;;;;;;;;4986701;28;20074;-58
2022/06/28 01:20:17;;;;;;;1.90;1.00;;;;;;;;;;5015616;28;20034;-58
2022/06/28 01:26:25;;;;;;;2.35;0.85;;;;;;;;;;5005535;28;20082;-58
2022/06/28 01:29:06;;;;;;;1.75;0.75;;;;;;;;;;5000334;28;20113;-58
2022/06/28 01:31:33;;;;;;;2.08;1.08;;;;;;;;;;5025348;28;20050;-58
2022/06/28 01:34:09;;;;;;;2.33;1.40;;;;;;;;;;4992084;28;20038;-58
2022/06/28 01:36:42;;;;;;;1.77;1.13;;;;;;;;;;5008844;28;20030;-58
2022/06/28 01:39:23;;;;;;;1.67;1.10;;;;;;;;;;5015685;28;20062;-58
2022/06/28 01:42:20;;;;;;;2.42;1.13;;;;;;;;;;5047452;28;20055;-58
2022/06/28 01:53:50;;;;;;;2.13;1.02;;;;;;;;;;5038681;28;20049;-58
2022/06/28 01:56:47;;;;;;;3.05;1.38;;;;;;;;;;5047071;28;20044;-58
2022/06/28 02:00:03;;;;;;;1.77;0.82;;;;;;;;;;5050722;28;20037;-57
2022/06/28 02:02:42;;;;;;;1.92;1.00;;;;;;;;;;5032731;28;20033;-58
2022/06/28 02:08:27;;;;;;;2.20;1.38;;;;;;;;;;5041668;28;20048;-58
2022/06/28 02:11:18;;;;;;;2.75;1.48;;;;;;;;;;5051078;28;20048;-58
2022/06/28 02:14:07;;;;;;;2.03;1.17;;;;;;;;;;5050965;28;20021;-58
2022/06/28 02:16:54;;;;;;;1.27;0.75;;;;;;;;;;5048607;28;20044;-58
2022/06/28 02:19:42;;;;;;;1.50;0.95;;;;;;;;;;5050431;28;20026;-58
2022/06/28 02:22:44;;;;;;;1.88;1.13;;;;;;;;;;5050045;28;20033;-58
2022/06/28 02:25:23;;;;;;;2.13;1.10;;;;;;;;;;5050036;28;20445;-58
2022/06/28 02:31:07;;;;;;;;;;;;;;;;;;;;;
2022/06/28 02:33:52;;;;;;;2.10;1.15;;;;;;;;;;5008883;28;20062;-57
2022/06/28 02:42:47;;;;;;;2.00;1.23;;;;;;;;;;5008698;28;20089;-58
2022/06/28 02:45:35;;;;;;;1.90;1.20;;;;;;;;;;5007846;28;20026;-58
2022/06/28 02:48:26;;;;;;;1.63;1.10;;;;;;;;;;5027212;28;20030;-58
2022/06/28 02:51:22;;;;;;;;;;;;;;;;;;;;;
2022/06/28 02:54:00;;;;;;;3.17;1.83;;;;;;;;;;5020735;28;20435;-58
2022/06/28 02:56:46;;;;;;;4.93;1.77;;;;;;;;;;5033372;28;20045;-58
2022/06/28 02:59:30;;;;;;;2.00;1.33;;;;;;;;;;5031483;28;20101;-57
2022/06/28 03:08:34;;;;;;;3.35;1.73;;;;;;;;;;5040164;28;20052;-58
2022/06/28 03:11:27;;;;;;;2.05;1.23;;;;;;;;;;5046327;28;20037;-58
2022/06/28 03:14:11;;;;;;;4.15;1.60;;;;;;;;;;5046709;28;20044;-58
2022/06/28 03:16:57;;;;;;;1.83;0.98;;;;;;;;;;5048889;28;20091;-58
2022/06/28 03:19:33;;;;;;;3.85;1.63;;;;;;;;;;5049383;28;20036;-58
2022/06/28 03:22:26;;;;;;;2.05;1.60;;;;;;;;;;5049087;28;20017;-58
2022/06/28 03:25:17;;;;;;;3.72;1.50;;;;;;;;;;5048925;28;20025;-58
2022/06/28 03:28:07;;;;;;;1.85;1.25;;;;;;;;;;5048796;28;20056;-58
2022/06/28 03:30:36;;;;;;;2.75;1.95;;;;;;;;;;5037827;28;20049;-58
2022/06/28 03:33:28;;;;;;;4.17;1.40;;;;;;;;;;5031648;28;20046;-58
2022/06/28 03:36:03;;;;;;;1.85;1.27;;;;;;;;;;5017903;28;20495;-57
2022/06/28 03:38:42;;;;;;;2.90;1.92;;;;;;;;;;5018719;28;20475;-58
2022/06/28 03:41:27;;;;;;;3.15;1.85;;;;;;;;;;5034962;28;20022;-57
2022/06/28 03:44:03;;;;;;;3.20;1.60;;;;;;;;;;5036278;28;20029;-57
2022/06/28 03:49:52;;;;;;;3.78;1.45;;;;;;;;;;5027787;28;20072;-58
2022/06/28 03:52:43;;;;;;;2.30;1.65;;;;;;;;;;5019549;28;20021;-58
2022/06/28 03:55:16;;;;;;;2.63;1.80;;;;;;;;;;5017230;28;20372;-57
2022/06/28 04:01:00;;;;;;;2.53;1.35;;;;;;;;;;4980520;28;20034;-58
2022/06/28 04:06:29;;;;;;;2.40;1.63;;;;;;;;;;5035021;28;20470;-58
2022/06/28 04:09:32;;;;;;;2.60;1.73;;;;;;;;;;5035251;28;20609;-58
2022/06/28 04:12:08;;;;;;;2.73;2.13;;;;;;;;;;5034314;28;20034;-58
2022/06/28 04:17:34;;;;;;;3.92;2.00;;;;;;;;;;5035159;28;20041;-58
2022/06/28 04:20:12;;;;;;;2.15;1.60;;;;;;;;;;5034176;28;20112;-58
2022/06/28 04:22:52;;;;;;;2.25;1.42;;;;;;;;;;5032736;28;20041;-58
2022/06/28 04:28:52;;;;;;;2.45;1.63;;;;;;;;;;4993451;28;20504;-58
2022/06/28 04:35:05;;;;;;;2.95;2.03;;;;;;;;;;4964690;28;20132;-58
2022/06/28 04:37:37;;;;;;;3.58;1.70;;;;;;;;;;5017710;28;20045;-58
2022/06/28 04:40:51;;;;;;;2.22;1.52;;;;;;;;;;5036401;28;20021;-58
2022/06/28 04:43:46;;;;;;;3.22;2.15;;;;;;;;;;5018836;28;20037;-58
2022/06/28 04:49:39;;;;;;;2.80;1.88;;;;;;;;;;5033689;28;20045;-58
2022/06/28 04:52:05;;;;;;;2.40;1.88;;;;;;;;;;5033726;28;20075;-58
2022/06/28 04:54:53;;;;;;;3.17;2.33;;;;;;;;;;5031541;28;20483;-58
2022/06/28 04:57:32;;;;;;;3.00;2.45;;;;;;;;;;5015764;28;20479;-57
2022/06/28 05:00:14;;;;;;;;;;;;;;;;;;;;;
2022/06/28 05:02:47;;;;;;;3.15;2.08;;;;;;;;;;5031541;28;20045;-58
2022/06/28 05:06:25;;;;;;;3.53;2.10;;;;;;;;;;5032529;28;20041;-58
2022/06/28 05:08:41;;;;;;;7.82;2.63;;;;;;;;;;5030929;28;20029;-58
2022/06/28 05:17:33;;;;;;;4.80;2.80;;;;;;;;;;5005447;28;20530;-58
2022/06/28 05:20:30;;;;;;;;;;;;;;;;;;;;;
2022/06/28 05:23:18;;;;;;;3.78;3.08;;;;;;;;;;5026090;28;20426;-57
2022/06/28 05:26:04;;;;;;;5.68;3.03;;;;;;;;;;5031242;28;20042;-57
2022/06/28 05:28:37;;;;;;;4.85;4.00;;;;;;;;;;5032149;28;20529;-58
2022/06/28 05:31:31;;;;;;;5.13;4.45;;;;;;;;;;5029720;28;20525;-57
2022/06/28 05:34:03;;;;;;;4.57;4.18;;;;;;;;;;5036026;28;20045;-58
2022/06/28 05:37:12;;;;;;;7.03;5.28;;;;;;;;;;5035824;28;20053;-58
2022/06/28 05:40:04;;;;;;;6.78;5.93;;;;;;;;;;4976658;28;20043;-58
2022/06/28 05:42:59;;;;;;;6.45;5.85;;;;;;;;;;4976523;28;20570;-57
2022/06/28 05:49:07;;;;;;;;;;;;;;;;;;;;;
2022/06/28 05:52:08;;;;;;;7.38;6.60;;;;;;;;;;5031778;28;20033;-58
2022/06/28 05:55:03;;;;;;;7.72;6.40;;;;;;;;;;5021021;28;20030;-58
2022/06/28 05:57:47;;;;;;;7.85;7.07;;;;;;;;;;5035011;28;20550;-57
2022/06/28 06:00:19;;;;;;;9.13;8.25;;;;;;;;;;5035614;28;20030;-58
2022/06/28 06:03:12;;;;;;;9.95;7.53;;;;;;;;;;5035161;28;20017;-58
2022/06/28 06:05:45;;;;;;;8.35;7.55;;;;;;;;;;5035542;28;20483;-58
2022/06/28 06:14:13;;;;;;;10.57;7.22;;;;;;;;;;5014731;28;20431;-58
2022/06/28 06:17:11;;;;;;;8.48;7.68;;;;;;;;;;5030187;28;20065;-58
2022/06/28 06:19:37;;;;;;;9.05;7.88;;;;;;;;;;5034149;28;20064;-57
2022/06/28 06:22:45;;;;;;;;;;;;;;;;;;;;;
2022/06/28 06:25:34;;;;;;;7.15;6.45;;;;;;;;;;5038819;28;20539;-58
2022/06/28 06:28:10;;;;;;;8.88;6.45;;;;;;;;;;5037493;28;20505;-58
2022/06/28 06:30:44;;;;;;;11.30;7.78;;;;;;;;;;5037435;28;20034;-58
2022/06/28 06:33:33;;;;;;;;;;;;;;;;;;;;;
2022/06/28 06:36:28;;;;;;;8.50;7.65;;;;;;;;;;5034182;28;20125;-58
2022/06/28 06:39:22;;;;;;;8.48;7.55;;;;;;;;;;5036043;28;20380;-58
2022/06/28 06:42:22;;;;;;;8.35;7.65;;;;;;;;;;5036075;28;20022;-58
2022/06/28 06:45:03;;;;;;;8.07;7.30;;;;;;;;;;5036181;28;20033;-57
2022/06/28 06:50:36;;;;;;;7.13;6.43;;;;;;;;;;5037037;28;20087;-58
2022/06/28 06:53:21;;;;;;;;;;;;;;;;;;;;;
2022/06/28 06:56:12;;;;;;;11.68;8.25;;;;;;;;;;5042109;28;20084;-58
2022/06/28 06:58:58;;;;;;;8.82;7.88;;;;;;;;;;5036809;28;20033;-57
2022/06/28 07:02:02;;;;;;;9.30;7.50;;;;;;;;;;5032579;28;20482;-58
2022/06/28 07:10:59;;;;;;;10.38;9.32;;;;;;;;;;5035515;28;20037;-58
2022/06/28 07:13:35;;;;;;;10.50;8.63;;;;;;;;;;5031977;28;20034;-58
2022/06/28 07:19:20;;;;;;;10.90;9.80;;;;;;;;;;5023471;28;20398;-58
2022/06/28 07:21:54;;;;;;;9.32;8.27;;;;;;;;;;5017343;28;20037;-57
2022/06/28 07:27:30;;;;;;;9.70;8.80;;;;;;;;;;5024878;28;20037;-57
2022/06/28 07:35:56;;;;;;;10.45;9.45;;;;;;;;;;5035326;28;20083;-58
2022/06/28 07:38:49;;;;;;;;;;;;;;;;;;;;;
2022/06/28 07:41:28;;;;;;;10.68;9.55;;;;;;;;;;5033347;28;20025;-58
2022/06/28 07:53:48;;;;;;;9.25;8.45;;;;;;;;;;5032775;28;20156;-58
2022/06/28 07:56:37;;;;;;;9.23;8.43;;;;;;;;;;4954726;29;20039;-58
2022/06/28 08:02:29;;;;;;;;;;;;;;;;;;;;;
2022/06/28 08:04:55;;;;;;;8.65;7.82;;;;;;;;;;5026138;28;20040;-58
2022/06/28 08:07:36;;;;;;;9.48;6.82;;;;;;;;;;5032682;28;20064;-58
2022/06/28 08:10:19;;;;;;;9.00;8.15;;;;;;;;;;5034172;28;20041;-58
2022/06/28 08:13:03;;;;;;;9.68;7.50;;;;;;;;;;5001899;28;20042;-58
2022/06/28 08:16:23;;;;;;;8.77;7.70;;;;;;;;;;5035703;28;20093;-58
2022/06/28 08:18:53;;;;;;;8.48;5.97;;;;;;;;;;5033375;28;20467;-58
2022/06/28 08:21:42;;;;;;;;;;;;;;;;;;;;;
2022/06/28 08:24:17;;;;;;;8.65;6.78;;;;;;;;;;5033434;28;20093;-58
2022/06/28 08:26:58;;;;;;;8.35;6.32;;;;;;;;;;5034965;28;20061;-58
2022/06/28 08:30:11;;;;;;;;;;;;;;;;;;;;;
2022/06/28 08:33:02;;;;;;;6.78;5.93;;;;;;;;;;5033006;28;20080;-57
2022/06/28 08:38:34;;;;;;;7.22;6.50;;;;;;;;;;5034457;28;20080;-58
2022/06/28 08:41:26;;;;;;;5.53;4.97;;;;;;;;;;5019399;28;20037;-58
2022/06/28 08:44:01;;;;;;;6.45;5.47;;;;;;;;;;5034828;28;20101;-58
2022/06/28 08:49:58;;;;;;;5.15;4.65;;;;;;;;;;5034601;28;20108;-58
2022/06/28 08:52:42;;;;;;;7.00;5.03;;;;;;;;;;5033655;28;20037;-58
2022/06/28 08:58:40;;;;;;;7.55;5.55;;;;;;;;;;5012474;28;20128;-58
2022/06/28 09:01:13;;;;;;;6.15;5.05;;;;;;;;;;5013241;28;20472;-58
2022/06/28 09:04:12;;;;;;;6.10;5.20;;;;;;;;;;5010649;28;20487;-58
2022/06/28 09:06:47;;;;;;;5.78;4.70;;;;;;;;;;5005934;28;20557;-58
2022/06/28 09:12:29;;;;;;;3.97;3.58;;;;;;;;;;5018242;28;20034;-58
2022/06/28 09:15:20;;;;;;;4.18;3.72;;;;;;;;;;5026745;28;20065;-58
2022/06/28 09:18:17;;;;;;;4.10;3.65;;;;;;;;;;5037602;28;20060;-58
2022/06/28 09:21:20;;;;;;;4.07;3.53;;;;;;;;;;5037041;28;20137;-58
2022/06/28 09:24:01;;;;;;;4.40;3.25;;;;;;;;;;5019037;28;20179;-58
2022/06/28 09:26:56;;;;;;;3.67;3.33;;;;;;;;;;5027076;28;20052;-58
2022/06/28 09:32:30;;;;;;;6.43;3.30;;;;;;;;;;5037216;28;20100;-57
2022/06/28 09:35:25;;;;;;;4.65;3.22;;;;;;;;;;5018672;28;20037;-58
2022/06/28 09:37:54;;;;;;;3.60;3.30;;;;;;;;;;5037318;28;20029;-58
2022/06/28 09:40:42;;;;;;;3.90;3.05;;;;;;;;;;5037104;28;20116;-58
2022/06/28 09:43:14;;;;;;;3.28;2.55;;;;;;;;;;5036485;28;20040;-58
2022/06/28 09:48:46;;;;;;;3.28;2.67;;;;;;;;;;5022440;28;20091;-58
2022/06/28 09:54:59;;;;;;;3.28;2.78;;;;;;;;;;5037500;28;20113;-58
2022/06/28 09:58:03;;;;;;;3.40;3.03;;;;;;;;;;5029496;28;20487;-58
2022/06/28 10:06:46;;;;;;;3.50;2.78;;;;;;;;;;5037281;28;20029;-58
2022/06/28 10:09:37;;;;;;;3.53;2.70;;;;;;;;;;5036935;28;20491;-58
2022/06/28 10:15:03;;;;;;;2.80;2.40;;;;;;;;;;5036616;28;20093;-58
2022/06/28 10:17:56;;;;;;;2.75;2.28;;;;;;;;;;5035423;28;20045;-58
2022/06/28 10:23:55;;;;;;;3.58;2.47;;;;;;;;;;5037449;28;20029;-58
2022/06/28 10:26:33;;;;;;;4.10;2.67;;;;;;;;;;5037367;28;20026;-58
2022/06/28 10:29:33;;;;;;;2.50;1.70;;;;;;;;;;5036459;28;20033;-58
2022/06/28 10:32:02;;;;;;;2.78;1.98;;;;;;;;;;5028468;28;20125;-58
2022/06/28 10:34:57;;;;;;;4.57;2.17;;;;;;;;;;5036565;28;20063;-58
2022/06/28 10:37:35;;;;;;;2.90;2.28;;;;;;;;;;5029117;28;20045;-58
2022/06/28 10:40:32;;;;;;;3.80;1.92;;;;;;;;;;5018128;28;20383;-58
2022/06/28 10:43:31;;;;;;;2.45;1.80;;;;;;;;;;5036049;28;20026;-58
2022/06/28 10:49:29;;;;;;;2.88;1.73;;;;;;;;;;4955904;29;20073;-58
2022/06/28 10:55:32;;;;;;;2.30;1.60;;;;;;;;;;4914965;29;20034;-58
2022/06/28 10:58:30;;;;;;;2.45;1.58;;;;;;;;;;4956249;29;20040;-58
2022/06/28 11:01:18;;;;;;;;;;;;;;;;;;;;;
2022/06/28 11:04:24;;;;;;;2.33;1.40;;;;;;;;;;4965079;28;20039;-58
2022/06/28 11:10:46;;;;;;;2.97;1.90;;;;;;;;;;4990309;28;20034;-58
2022/06/28 11:13:40;;;;;;;2.70;1.63;;;;;;;;;;4975010;28;20037;-58
2022/06/28 11:16:28;;;;;;;2.20;1.52;;;;;;;;;;4975496;28;20106;-58
2022/06/28 11:19:19;;;;;;;2.45;1.90;;;;;;;;;;4975502;28;20444;-58
2022/06/28 11:28:15;;;;;;;2.80;1.75;;;;;;;;;;5007969;28;20379;-58
2022/06/28 11:31:00;;;;;;;;;;;;;;;;;;;;;
2022/06/28 11:33:59;;;;;;;1.90;1.20;;;;;;;;;;5034199;28;20380;-59
2022/06/28 11:40:00;;;;;;;2.85;1.70;;;;;;;;;;4997334;28;20072;-58
2022/06/28 11:42:44;;;;;;;3.72;1.75;;;;;;;;;;5013007;28;20029;-59
2022/06/28 11:45:18;;;;;;;2.33;1.40;;;;;;;;;;5013034;28;20381;-58
2022/06/28 11:48:12;;;;;;;;;;;;;;;;;;;;;
2022/06/28 11:54:07;;;;;;;2.13;1.45;;;;;;;;;;5004994;28;20498;-59
2022/06/28 11:57:03;;;;;;;2.30;1.30;;;;;;;;;;5011369;28;20454;-58
2022/06/28 11:59:49;;;;;;;2.33;1.48;;;;;;;;;;4944341;28;20094;-58
2022/06/28 12:02:36;;;;;;;2.85;1.50;;;;;;;;;;5013412;28;20157;-59
2022/06/28 12:05:30;;;;;;;2.53;1.67;;;;;;;;;;5011868;28;20037;-58
2022/06/28 12:08:22;;;;;;;2.92;1.60;;;;;;;;;;4948286;29;20035;-58
2022/06/28 12:14:19;;;;;;;1.83;1.38;;;;;;;;;;5027291;28;20068;-59
2022/06/28 12:20:41;;;;;;;3.50;1.33;;;;;;;;;;4952598;28;20106;-59
2022/06/28 12:23:13;;;;;;;3.25;1.30;;;;;;;;;;4916029;29;20107;-58
2022/06/28 12:25:57;;;;;;;3.40;1.60;;;;;;;;;;4925903;28;20082;-59
2022/06/28 12:28:59;;;;;;;2.53;1.40;;;;;;;;;;5024987;28;20041;-58
2022/06/28 12:31:44;;;;;;;2.20;1.50;;;;;;;;;;5020545;28;20116;-59
2022/06/28 12:37:37;;;;;;;1.85;1.08;;;;;;;;;;4993181;28;20159;-59
2022/06/28 12:40:56;;;;;;;2.15;1.27;;;;;;;;;;5025278;28;20037;-59
2022/06/28 12:43:28;;;;;;;2.38;1.17;;;;;;;;;;4972827;28;20421;-59
2022/06/28 12:46:15;;;;;;;1.98;1.05;;;;;;;;;;4973862;28;20139;-58
2022/06/28 12:48:41;;;;;;;1.75;0.98;;;;;;;;;;5017371;28;20466;-58
2022/06/28 12:51:16;;;;;;;3.38;1.38;;;;;;;;;;5023612;28;20434;-58
2022/06/28 12:53:50;;;;;;;1.77;0.98;;;;;;;;;;5035300;28;20461;-59
2022/06/28 13:02:34;;;;;;;2.55;1.38;;;;;;;;;;5034510;28;20504;-59
2022/06/28 13:10:59;;;;;;;4.68;1.05;;;;;;;;;;5034384;28;20033;-59
2022/06/28 13:13:31;;;;;;;;;;;;;;;;;;5035607;28;20025;-59
2022/06/28 13:16:27;;;;;;;2.00;1.13;;;;;;;;;;5032756;28;19905;-59
2022/06/28 13:18:53;;;;;;;1.60;1.00;;;;;;;;;;5020643;28;20124;-58
2022/06/28 13:21:32;;;;;;;2.17;1.15;;;;;;;;;;5034269;28;20048;-59
2022/06/28 13:27:07;;;;;;;3.88;1.20;;;;;;;;;;5012839;28;20379;-58
2022/06/28 13:29:45;;;;;;;2.00;1.13;;;;;;;;;;5034655;28;20379;-59
2022/06/28 13:32:29;;;;;;;1.90;0.70;;;;;;;;;;5036396;28;20033;-58
2022/06/28 13:41:41;;;;;;;1.45;0.85;;;;;;;;;;5034263;28;20029;-58
2022/06/28 13:44:25;;;;;;;1.95;0.98;;;;;;;;;;5033874;28;20045;-59
2022/06/28 13:47:29;;;;;;;4.30;0.95;;;;;;;;;;5033294;28;20117;-58
2022/06/28 13:50:17;;;;;;;2.63;1.48;;;;;;;;;;5033815;28;20029;-58
2022/06/28 14:02:35;;;;;;;1.67;0.80;;;;;;;;;;5037387;28;20063;-58
2022/06/28 14:05:07;;;;;;;5.00;0.80;;;;;;;;;;4999699;28;20026;-58
2022/06/28 14:08:06;;;;;;;1.50;0.80;;;;;;;;;;5035163;28;20037;-59
2022/06/28 14:11:02;;;;;;;1.67;0.88;;;;;;;;;;5033117;28;20487;-58
2022/06/28 14:13:34;;;;;;;3.00;1.20;;;;;;;;;;5015226;28;20030;-59
2022/06/28 14:16:01;;;;;;;1.88;0.95;;;;;;;;;;5019192;28;20517;-59
2022/06/28 14:18:49;;;;;;;1.92;0.88;;;;;;;;;;5037043;28;20163;-59
2022/06/28 14:21:36;;;;;;;;;;;;;;;;;;;;;
2022/06/28 14:24:23;;;;;;;1.80;0.80;;;;;;;;;;5016574;28;20459;-59
2022/06/28 14:27:18;;;;;;;1.00;0.60;;;;;;;;;;5037527;28;20017;-59
2022/06/28 14:30:12;;;;;;;;;;;;;;;;;;;;;
2022/06/28 14:32:38;;;;;;;1.77;0.88;;;;;;;;;;5038565;28;20101;-58
2022/06/28 14:38:24;;;;;;;1.15;0.73;;;;;;;;;;5038984;28;20037;-58
2022/06/28 14:41:15;;;;;;;1.90;1.00;;;;;;;;;;5042399;28;20517;-59
2022/06/28 14:43:48;;;;;;;1.85;1.10;;;;;;;;;;5026089;28;20079;-58
2022/06/28 14:46:31;;;;;;;1.85;0.95;;;;;;;;;;5043870;28;20032;-58
2022/06/28 14:49:18;;;;;;;4.40;1.15;;;;;;;;;;5043752;28;20029;-59
2022/06/28 14:54:52;;;;;;;1.63;0.80;;;;;;;;;;5043232;28;20079;-59
2022/06/28 14:57:34;;;;;;;1.98;1.08;;;;;;;;;;5042966;28;20022;-58
2022/06/28 15:00:15;;;;;;;1.75;0.93;;;;;;;;;;5021235;28;20425;-59
2022/06/28 15:03:12;;;;;;;1.98;0.88;;;;;;;;;;5018327;28;20032;-58
2022/06/28 15:05:38;;;;;;;3.38;1.15;;;;;;;;;;5013611;28;20527;-59
2022/06/28 15:10:59;;;;;;;1.58;0.75;;;;;;;;;;5021013;28;20102;-59
2022/06/28 15:16:58;;;;;;;;;;;;;;;;;;;;;
2022/06/28 15:19:34;;;;;;;1.63;1.02;;;;;;;;;;5020564;28;20089;-59
2022/06/28 15:31:01;;;;;;;1.50;0.90;;;;;;;;;;5019727;28;20033;-59
2022/06/28 15:33:30;;;;;;;2.80;1.48;;;;;;;;;;5013237;28;20073;-59
2022/06/28 15:36:07;;;;;;;1.98;1.17;;;;;;;;;;5040270;28;20030;-58
2022/06/28 15:39:02;;;;;;;1.80;1.10;;;;;;;;;;5041358;28;20034;-59
2022/06/28 15:44:56;;;;;;;1.95;1.33;;;;;;;;;;5039028;28;20075;-59
2022/06/28 15:47:42;;;;;;;3.15;1.38;;;;;;;;;;5016780;28;20395;-59
2022/06/28 15:56:34;;;;;;;1.80;1.02;;;;;;;;;;4998197;28;20046;-59
2022/06/28 15:59:15;;;;;;;2.22;1.33;;;;;;;;;;4998965;28;20117;-59
2022/06/28 16:01:43;;;;;;;;;;;;;;;;;;4999210;28;20419;-59
2022/06/28 16:04:32;;;;;;;2.00;1.38;;;;;;;;;;4999175;28;19917;-59
2022/06/28 16:08:00;;;;;;;2.50;1.58;;;;;;;;;;4954891;28;20027;-59
2022/06/28 16:10:42;;;;;;;1.67;1.00;;;;;;;;;;4940669;29;20079;-59
2022/06/28 16:16:26;;;;;;;2.80;1.52;;;;;;;;;;4939580;29;20031;-59
2022/06/28 16:18:53;;;;;;;2.05;1.45;;;;;;;;;;4934110;28;20051;-59
2022/06/28 16:21:33;;;;;;;2.13;1.20;;;;;;;;;;5027191;28;20120;-59
2022/06/28 16:24:28;;;;;;;2.40;1.48;;;;;;;;;;5037441;28;20057;-59
2022/06/28 16:27:18;;;;;;;1.70;1.23;;;;;;;;;;5040121;28;20022;-59
2022/06/28 16:29:54;;;;;;;;;;;;;;;;;;5035817;28;20040;-59
2022/06/28 16:35:48;;;;;;;2.08;1.23;;;;;;;;;;5027917;28;20049;-59
2022/06/28 16:38:48;;;;;;;2.67;1.35;;;;;;;;;;5034112;28;20109;-59
2022/06/28 16:41:14;;;;;;;2.50;1.30;;;;;;;;;;5016313;28;20025;-58
2022/06/28 16:44:00;;;;;;;2.28;1.58;;;;;;;;;;5031483;28;20029;-58
2022/06/28 16:46:51;;;;;;;4.85;1.83;;;;;;;;;;5016180;28;20025;-58
2022/06/28 16:49:26;;;;;;;2.05;1.17;;;;;;;;;;5030057;28;20037;-59
2022/06/28 16:52:02;;;;;;;2.75;1.40;;;;;;;;;;5034515;28;20029;-59
2022/06/28 16:54:32;;;;;;;2.17;1.40;;;;;;;;;;5033754;28;20022;-58
2022/06/28 17:00:01;;;;;;;3.20;1.63;;;;;;;;;;5014199;28;20029;-59
2022/06/28 17:02:42;;;;;;;;;;;;;;;;;;;;;
2022/06/28 17:05:12;;;;;;;2.53;1.80;;;;;;;;;;5034689;28;20029;-59
2022/06/28 17:08:40;;;;;;;2.15;1.48;;;;;;;;;;5017031;28;20033;-59
2022/06/28 17:11:14;;;;;;;;;;;;;;;;;;;;;
2022/06/28 17:17:15;;;;;;;2.78;1.48;;;;;;;;;;5034507;28;20091;-59
2022/06/28 17:20:07;;;;;;;2.72;1.92;;;;;;;;;;5034786;28;20033;-59
2022/06/28 17:22:36;;;;;;;2.38;1.55;;;;;;;;;;5015624;28;20038;-59
2022/06/28 17:25:10;;;;;;;3.13;1.67;;;;;;;;;;5033054;28;20025;-59
2022/06/28 17:33:45;;;;;;;3.53;2.22;;;;;;;;;;5035758;28;20026;-59
2022/06/28 17:36:48;;;;;;;2.72;2.00;;;;;;;;;;5018934;28;20054;-59
2022/06/28 17:42:22;;;;;;;2.97;1.75;;;;;;;;;;5002771;28;20480;-59
2022/06/28 17:44:58;;;;;;;3.83;2.53;;;;;;;;;;5018810;28;20025;-59
2022/06/28 17:47:29;;;;;;;2.67;1.73;;;;;;;;;;5000611;28;20034;-59
2022/06/28 17:50:06;;;;;;;2.65;2.08;;;;;;;;;;5017695;28;20030;-59
2022/06/28 17:53:00;;;;;;;4.10;2.13;;;;;;;;;;5017689;28;20025;-59
2022/06/28 17:55:32;;;;;;;2.88;1.83;;;;;;;;;;5002942;28;20036;-59
2022/06/28 17:58:48;;;;;;;2.58;1.88;;;;;;;;;;5000924;28;20029;-59
2022/06/28 18:01:43;;;;;;;7.07;2.50;;;;;;;;;;5020616;28;20411;-59
2022/06/28 18:04:25;;;;;;;2.60;1.98;;;;;;;;;;5016932;28;20053;-59
2022/06/28 18:07:26;;;;;;;;;;;;;;;;;;;;;
2022/06/28 18:10:22;;;;;;;3.03;2.22;;;;;;;;;;4966970;28;20037;-59
2022/06/28 18:15:48;;;;;;;2.92;2.28;;;;;;;;;;5011214;28;20026;-59
2022/06/28 18:18:20;;;;;;;3.03;2.53;;;;;;;;;;5016503;28;20387;-59
2022/06/28 18:24:18;;;;;;;3.13;2.25;;;;;;;;;;5010753;28;20030;-59
2022/06/28 18:26:44;;;;;;;3.17;2.33;;;;;;;;;;5016757;28;20030;-59
2022/06/28 18:29:29;;;;;;;2.80;2.17;;;;;;;;;;5016910;28;20038;-59
2022/06/28 18:32:22;;;;;;;3.05;2.38;;;;;;;;;;5006013;28;20037;-59
2022/06/28 18:35:06;;;;;;;;;;;;;;;;;;;;;
2022/06/28 18:41:01;;;;;;;3.72;2.35;;;;;;;;;;5013343;28;20021;-58
2022/06/28 18:43:34;;;;;;;4.82;2.85;;;;;;;;;;5019063;28;20040;-59
2022/06/28 18:46:09;;;;;;;3.22;2.65;;;;;;;;;;5036479;28;20363;-59
2022/06/28 18:49:00;;;;;;;3.17;2.50;;;;;;;;;;5018363;28;20076;-59
2022/06/28 18:52:01;;;;;;;3.08;2.53;;;;;;;;;;5036153;28;20022;-59
2022/06/28 18:55:00;;;;;;;3.38;2.47;;;;;;;;;;5036931;28;20029;-58
2022/06/28 18:57:36;;;;;;;3.35;2.50;;;;;;;;;;5017408;28;20033;-59
2022/06/28 19:00:26;;;;;;;3.72;2.47;;;;;;;;;;5036485;28;20031;-59
2022/06/28 19:03:23;;;;;;;3.80;2.80;;;;;;;;;;5028956;28;20026;-59
2022/06/28 19:09:26;;;;;;;3.72;2.20;;;;;;;;;;5026717;28;20124;-58
2022/06/28 19:15:39;;;;;;;;;;;;;;;;;;;;;
2022/06/28 19:18:16;;;;;;;3.38;2.40;;;;;;;;;;5009729;28;20049;-59
2022/06/28 19:20:51;;;;;;;3.45;2.70;;;;;;;;;;5012463;28;20087;-58
2022/06/28 19:23:35;;;;;;;6.25;2.78;;;;;;;;;;5017560;28;20033;-59
2022/06/28 19:26:08;;;;;;;3.70;3.13;;;;;;;;;;5036572;28;20045;-58
2022/06/28 19:31:47;;;;;;;3.60;3.05;;;;;;;;;;5020169;28;20029;-58
2022/06/28 19:34:33;;;;;;;4.43;3.03;;;;;;;;;;5006258;28;20113;-59
2022/06/28 19:37:45;;;;;;;3.60;2.95;;;;;;;;;;5036228;28;20042;-59
2022/06/28 19:40:20;;;;;;;3.15;2.85;;;;;;;;;;5035686;28;20084;-59
2022/06/28 19:42:46;;;;;;;3.17;2.55;;;;;;;;;;5036263;28;20061;-59
2022/06/28 19:45:28;;;;;;;3.83;2.85;;;;;;;;;;5036139;28;20032;-59
2022/06/28 19:48:01;;;;;;;4.68;3.35;;;;;;;;;;5035412;28;20578;-58
2022/06/28 19:50:50;;;;;;;5.53;2.75;;;;;;;;;;5035416;28;20025;-59
2022/06/28 19:57:07;;;;;;;;;;;;;;;;;;;;;
2022/06/28 19:59:43;;;;;;;5.10;3.47;;;;;;;;;;5005475;28;20552;-59
2022/06/28 20:02:18;;;;;;;4.90;3.13;;;;;;;;;;5017657;28;20033;-58
2022/06/28 20:04:59;;;;;;;3.60;2.95;;;;;;;;;;5017996;28;20471;-58
2022/06/28 20:07:58;;;;;;;4.05;2.85;;;;;;;;;;5021034;28;20097;-59
2022/06/28 20:10:37;;;;;;;4.05;3.15;;;;;;;;;;5036592;28;20026;-58
2022/06/28 20:16:21;;;;;;;3.17;2.50;;;;;;;;;;5032375;28;20095;-58
2022/06/28 20:19:20;;;;;;;3.85;3.20;;;;;;;;;;5022443;28;20041;-58
2022/06/28 20:22:10;;;;;;;5.75;3.20;;;;;;;;;;5034905;28;20027;-58
2022/06/28 20:30:16;;;;;;;3.58;2.65;;;;;;;;;;5034680;28;20051;-58
2022/06/28 20:33:08;;;;;;;5.55;2.58;;;;;;;;;;5033953;28;20537;-58
2022/06/28 20:36:04;;;;;;;5.00;3.10;;;;;;;;;;5034315;28;20049;-59
2022/06/28 20:39:05;;;;;;;6.28;3.65;;;;;;;;;;5034381;28;20029;-58
2022/06/28 20:42:23;;;;;;;4.00;2.70;;;;;;;;;;5009677;28;20038;-58
2022/06/28 20:50:50;;;;;;;;;;;;;;;;;;;;;
2022/06/28 20:53:52;;;;;;;3.77;2.93;;;;;;;;;;4982903;28;20030;-58
2022/06/28 20:59:42;;;;;;;3.40;2.60;;;;;;;;;;5034003;28;20036;-58
2022/06/28 21:02:15;;;;;;;3.78;2.83;;;;;;;;;;5022080;28;20033;-58
2022/06/28 21:04:48;;;;;;;5.15;3.78;;;;;;;;;;5023498;28;20044;-58
2022/06/28 21:07:46;;;;;;;4.22;3.45;;;;;;;;;;5024606;28;20026;-58
2022/06/28 21:13:17;;;;;;;4.70;3.40;;;;;;;;;;5041520;28;20048;-59
2022/06/28 21:16:07;;;;;;;4.00;3.40;;;;;;;;;;5000040;28;20062;-58
2022/06/28 21:18:48;;;;;;;5.20;3.83;;;;;;;;;;5000581;28;20035;-58
2022/06/28 21:27:39;;;;;;;3.78;3.30;;;;;;;;;;4992237;28;20027;-59
2022/06/28 21:30:12;;;;;;;4.45;3.50;;;;;;;;;;5000611;28;20042;-58
2022/06/28 21:32:46;;;;;;;4.05;3.20;;;;;;;;;;5000814;28;20073;-58
2022/06/28 21:35:34;;;;;;;4.00;3.20;;;;;;;;;;4999667;28;20046;-58
2022/06/28 21:41:30;;;;;;;3.55;3.13;;;;;;;;;;5000333;28;20444;-58
2022/06/28 21:44:02;;;;;;;3.80;2.88;;;;;;;;;;5000165;28;20026;-58
2022/06/28 21:47:06;;;;;;;;;;;;;;;;;;;;;
2022/06/28 21:49:34;;;;;;;5.07;2.90;;;;;;;;;;5041550;28;20094;-58
2022/06/28 21:52:23;;;;;;;3.70;3.08;;;;;;;;;;5023732;28;20057;-58
2022/06/28 21:57:47;;;;;;;3.47;3.10;;;;;;;;;;5034635;28;20034;-58
2022/06/28 22:00:42;;;;;;;4.47;2.92;;;;;;;;;;5042362;28;20030;-58
2022/06/28 22:06:29;;;;;;;4.82;3.85;;;;;;;;;;4982844;28;20039;-59
2022/06/28 22:09:06;;;;;;;5.22;3.40;;;;;;;;;;5024853;28;20053;-58
2022/06/28 22:11:45;;;;;;;4.00;3.60;;;;;;;;;;5031677;28;20049;-58
2022/06/28 22:20:39;;;;;;;3.88;3.28;;;;;;;;;;5044976;28;20044;-58